Terminal Aerodrome Forecast
Issued by NWS Green Bay, WI

Home | Current Version | Previous Version | Graphics & Text | Print | Product List | Glossary On
Versions: 1 2 3 4 5 6 7 8 9 10 11 12 13 14 15 16 17 18 19 20 21 22 23 24 25 26 27 28 29 30 31 32 33 34 35 36 37 38 39
000
FTUS43 KGRB 281700
TAFGRB
TAF
KGRB 281721Z 2818/2918 17012KT P6SM SCT025 OVC130
      TEMPO 2818/2821 BKN025
     FM290300 15009KT P6SM SCT015 OVC040 PROB30 2906/2910 4SM
      -FZDZSN BR OVC015
     FM291000 30006KT 4SM -SN BR OVC008
     FM291300 31011G16KT 5SM -FZDZSN BR OVC011
     FM291600 32017G25KT P6SM OVC020=

USA.gov is the U.S. government's official web portal to all federal, state and local government web resources and services.